Canadian Transport — VCLX — position and weather

sailwx.info

Track history (hours):
 
Tides and Currents Weather Stations Pressure Air Temp Water Temp Dewpoint Dewpoint Depression Visibility Wind Speed Wind Dir Waves Ship Positions

Canadian Transport

Last reported at 2018-Jul-21 17:16 UTC. Time now 2018-Jul-21 19:36 UTC.
Position N 46°49' W 071°11'.

Length 223 m; draft 7 m.

Type: Cargo ship. MMSI: 316001698.

Date/timePositionNaut miles runAvg speedWind from/ knotsBaromVisibWave heightAir tempDewpointWater temp
2018-Jul-21 17:16N 46°49' W 071°11'  
2018-Jul-18 21:40N 46°50' W 071°09'212.3
2018-Jul-18 21:29N 46°49' W 071°11'8712.6
2018-Jul-18 14:36N 46°05' W 073°00'113.9
2018-Jul-18 14:30N 46°04' W 073°02'1110.9
2018-Jul-18 13:30N 45°57' W 073°13'612.9
2018-Jul-18 13:00N 45°51' W 073°17'1 1.7
2018-Jul-18 12:30N 45°50' W 073°17'0 0.0
2018-Jul-18 12:00N 45°50' W 073°17'0 0.0
2018-Jul-18 11:30N 45°50' W 073°17'0 0.0
2018-Jul-18 10:30N 45°50' W 073°17'0 0.0
2018-Jul-18 10:00N 45°50' W 073°17'0 0.0
2018-Jul-18 09:30N 45°50' W 073°17'0 0.0
2018-Jul-18 09:00N 45°50' W 073°17'0 0.0
2018-Jul-18 08:30N 45°50' W 073°17'0 0.0
2018-Jul-18 08:00N 45°50' W 073°17'0 0.0
2018-Jul-18 07:30N 45°50' W 073°17'0 0.0
2018-Jul-18 07:00N 45°50' W 073°17'0 0.0
2018-Jul-18 06:30N 45°50' W 073°17'0 0.0
2018-Jul-18 06:00N 45°50' W 073°17'0 0.0
2018-Jul-18 05:30N 45°50' W 073°17'0 0.0
2018-Jul-18 05:00N 45°50' W 073°17'0 0.0
2018-Jul-18 04:30N 45°50' W 073°17'0 0.0
2018-Jul-18 04:00N 45°50' W 073°17'0 0.0
2018-Jul-18 03:30N 45°50' W 073°17'0 0.0
2018-Jul-18 03:00N 45°50' W 073°17'0 0.0
2018-Jul-18 02:31N 45°50' W 073°17'0 0.0
2018-Jul-18 01:59N 45°50' W 073°17'0 0.0
2018-Jul-18 01:30N 45°50' W 073°17'0 0.6
2018-Jul-18 01:00N 45°50' W 073°17'2 4.1
2018-Jul-18 00:30N 45°52' W 073°16'4 7.6
2018-Jul-18 00:00N 45°55' W 073°13'4 8.2
2018-Jul-17 23:30N 45°59' W 073°11'4 8.1
2018-Jul-17 23:00N 46°03' W 073°09'4 8.1
2018-Jul-17 22:28N 46°04' W 073°03'89 9.5
2018-Jul-17 13:08N 46°49' W 071°12'1 9.3
2018-Jul-17 13:00N 46°50' W 071°11'  
2018-Jul-14 15:29N 46°50' W 071°09'9011.5
2018-Jul-14 07:39N 46°04' W 073°02'213.5
2018-Jul-14 07:29N 46°04' W 073°05'612.1
2018-Jul-14 07:00N 45°60' W 073°11'713.3
2018-Jul-14 06:29N 45°53' W 073°15'713.6
2018-Jul-14 06:00N 45°48' W 073°20'813.6
2018-Jul-14 05:26N 45°42' W 073°27'511.8
2018-Jul-14 05:00N 45°37' W 073°30'0 0.1
2018-Jul-14 04:30N 45°37' W 073°30'0 0.0
2018-Jul-14 03:59N 45°37' W 073°30'0 0.0
2018-Jul-14 03:30N 45°37' W 073°30'0 0.0
2018-Jul-14 02:58N 45°37' W 073°30'0 0.0
2018-Jul-14 02:31N 45°37' W 073°30'0 0.0
2018-Jul-13 12:13N 45°37' W 073°30'0 0.0
2018-Jul-13 10:44N 45°37' W 073°30'0 0.0
2018-Jul-13 10:30N 45°37' W 073°30'0 0.0
2018-Jul-13 10:00N 45°37' W 073°30'0 0.0
2018-Jul-13 09:28N 45°37' W 073°30'0 0.0
2018-Jul-13 08:34N 45°37' W 073°30'0 0.0
2018-Jul-13 08:26N 45°37' W 073°30'0 0.0
2018-Jul-13 08:00N 45°37' W 073°30'0 0.0
2018-Jul-13 07:26N 45°37' W 073°30'0 0.0
2018-Jul-13 06:54N 45°37' W 073°30'8 0.5
2018-Jul-12 14:19N 45°30' W 073°31'2 2.2
2018-Jul-12 13:29N 45°28' W 073°30'1 2.9
2018-Jul-12 13:00N 45°26' W 073°30'2 3.6
2018-Jul-12 12:20N 45°24' W 073°32'1 3.7
2018-Jul-12 12:00N 45°24' W 073°34'0 0.3
2018-Jul-12 11:30N 45°24' W 073°34'1 2.1
2018-Jul-12 10:59N 45°24' W 073°36'0 0.3
2018-Jul-12 10:30N 45°24' W 073°36'0 0.0
2018-Jul-12 10:00N 45°24' W 073°36'0 0.0
2018-Jul-12 09:29N 45°24' W 073°36'0 0.0
2018-Jul-12 08:31N 45°24' W 073°36'0 0.0
2018-Jul-12 05:59N 45°24' W 073°36'0 0.0
2018-Jul-12 05:30N 45°24' W 073°36'1 1.4
2018-Jul-12 05:00N 45°24' W 073°37'1 2.9
2018-Jul-12 04:30N 45°24' W 073°39'2 3.9
2018-Jul-12 04:00N 45°25' W 073°42'2 4.8
2018-Jul-12 03:30N 45°24' W 073°45'3 6.7
2018-Jul-12 03:00N 45°23' W 073°49'4 8.0
2018-Jul-12 02:30N 45°20' W 073°54'2 3.5
2018-Jul-12 02:00N 45°19' W 073°55'0 0.6
2018-Jul-12 01:30N 45°19' W 073°55'1 1.1
2018-Jul-12 01:00N 45°18' W 073°56'0 0.7
2018-Jul-12 00:30N 45°18' W 073°56'5 4.3
2018-Jul-11 23:20N 45°14' W 074°00'  
Track history (hours):
 
Tides and Currents Weather Stations Pressure Air Temp Water Temp Dewpoint Dewpoint Depression Visibility Wind Speed Wind Dir Waves Ship Positions

Canadian Transport

Last reported at 2018-Jul-21 17:16 UTC. Time now 2018-Jul-21 19:36 UTC.
Position N 46°49' W 071°11'.

Length 223 m; draft 7 m.

Type: Cargo ship. MMSI: 316001698.

Date/timePositionNaut miles runAvg speedWind from/ knotsBaromVisibWave heightAir tempDewpointWater temp
2018-Jul-21 17:16N 46°49' W 071°11'  
2018-Jul-18 21:40N 46°50' W 071°09'212.3
2018-Jul-18 21:29N 46°49' W 071°11'8712.6
2018-Jul-18 14:36N 46°05' W 073°00'113.9
2018-Jul-18 14:30N 46°04' W 073°02'1110.9
2018-Jul-18 13:30N 45°57' W 073°13'612.9
2018-Jul-18 13:00N 45°51' W 073°17'1 1.7
2018-Jul-18 12:30N 45°50' W 073°17'0 0.0
2018-Jul-18 12:00N 45°50' W 073°17'0 0.0
2018-Jul-18 11:30N 45°50' W 073°17'0 0.0
2018-Jul-18 10:30N 45°50' W 073°17'0 0.0
2018-Jul-18 10:00N 45°50' W 073°17'0 0.0
2018-Jul-18 09:30N 45°50' W 073°17'0 0.0
2018-Jul-18 09:00N 45°50' W 073°17'0 0.0
2018-Jul-18 08:30N 45°50' W 073°17'0 0.0
2018-Jul-18 08:00N 45°50' W 073°17'0 0.0
2018-Jul-18 07:30N 45°50' W 073°17'0 0.0
2018-Jul-18 07:00N 45°50' W 073°17'0 0.0
2018-Jul-18 06:30N 45°50' W 073°17'0 0.0
2018-Jul-18 06:00N 45°50' W 073°17'0 0.0
2018-Jul-18 05:30N 45°50' W 073°17'0 0.0
2018-Jul-18 05:00N 45°50' W 073°17'0 0.0
2018-Jul-18 04:30N 45°50' W 073°17'0 0.0
2018-Jul-18 04:00N 45°50' W 073°17'0 0.0
2018-Jul-18 03:30N 45°50' W 073°17'0 0.0
2018-Jul-18 03:00N 45°50' W 073°17'0 0.0
2018-Jul-18 02:31N 45°50' W 073°17'0 0.0
2018-Jul-18 01:59N 45°50' W 073°17'0 0.0
2018-Jul-18 01:30N 45°50' W 073°17'0 0.6
2018-Jul-18 01:00N 45°50' W 073°17'2 4.1
2018-Jul-18 00:30N 45°52' W 073°16'4 7.6
2018-Jul-18 00:00N 45°55' W 073°13'4 8.2
2018-Jul-17 23:30N 45°59' W 073°11'4 8.1
2018-Jul-17 23:00N 46°03' W 073°09'4 8.1
2018-Jul-17 22:28N 46°04' W 073°03'89 9.5
2018-Jul-17 13:08N 46°49' W 071°12'1 9.3
2018-Jul-17 13:00N 46°50' W 071°11'  
2018-Jul-14 15:29N 46°50' W 071°09'9011.5
2018-Jul-14 07:39N 46°04' W 073°02'213.5
2018-Jul-14 07:29N 46°04' W 073°05'612.1
2018-Jul-14 07:00N 45°60' W 073°11'713.3
2018-Jul-14 06:29N 45°53' W 073°15'713.6
2018-Jul-14 06:00N 45°48' W 073°20'813.6
2018-Jul-14 05:26N 45°42' W 073°27'511.8
2018-Jul-14 05:00N 45°37' W 073°30'0 0.1
2018-Jul-14 04:30N 45°37' W 073°30'0 0.0
2018-Jul-14 03:59N 45°37' W 073°30'0 0.0
2018-Jul-14 03:30N 45°37' W 073°30'0 0.0
2018-Jul-14 02:58N 45°37' W 073°30'0 0.0
2018-Jul-14 02:31N 45°37' W 073°30'0 0.0
2018-Jul-13 12:13N 45°37' W 073°30'0 0.0
2018-Jul-13 10:44N 45°37' W 073°30'0 0.0
2018-Jul-13 10:30N 45°37' W 073°30'0 0.0
2018-Jul-13 10:00N 45°37' W 073°30'0 0.0
2018-Jul-13 09:28N 45°37' W 073°30'0 0.0
2018-Jul-13 08:34N 45°37' W 073°30'0 0.0
2018-Jul-13 08:26N 45°37' W 073°30'0 0.0
2018-Jul-13 08:00N 45°37' W 073°30'0 0.0
2018-Jul-13 07:26N 45°37' W 073°30'0 0.0
2018-Jul-13 06:54N 45°37' W 073°30'8 0.5
2018-Jul-12 14:19N 45°30' W 073°31'2 2.2
2018-Jul-12 13:29N 45°28' W 073°30'1 2.9
2018-Jul-12 13:00N 45°26' W 073°30'2 3.6
2018-Jul-12 12:20N 45°24' W 073°32'1 3.7
2018-Jul-12 12:00N 45°24' W 073°34'0 0.3
2018-Jul-12 11:30N 45°24' W 073°34'1 2.1
2018-Jul-12 10:59N 45°24' W 073°36'0 0.3
2018-Jul-12 10:30N 45°24' W 073°36'0 0.0
2018-Jul-12 10:00N 45°24' W 073°36'0 0.0
2018-Jul-12 09:29N 45°24' W 073°36'0 0.0
2018-Jul-12 08:31N 45°24' W 073°36'0 0.0
2018-Jul-12 05:59N 45°24' W 073°36'0 0.0
2018-Jul-12 05:30N 45°24' W 073°36'1 1.4
2018-Jul-12 05:00N 45°24' W 073°37'1 2.9
2018-Jul-12 04:30N 45°24' W 073°39'2 3.9
2018-Jul-12 04:00N 45°25' W 073°42'2 4.8
2018-Jul-12 03:30N 45°24' W 073°45'3 6.7
2018-Jul-12 03:00N 45°23' W 073°49'4 8.0
2018-Jul-12 02:30N 45°20' W 073°54'2 3.5
2018-Jul-12 02:00N 45°19' W 073°55'0 0.6
2018-Jul-12 01:30N 45°19' W 073°55'1 1.1
2018-Jul-12 01:00N 45°18' W 073°56'0 0.7
2018-Jul-12 00:30N 45°18' W 073°56'5 4.3
2018-Jul-11 23:20N 45°14' W 074°00'  

Dump ship's entire track history